createdAt,value
2023-02-25T00:01:15.032Z,13.27
2023-02-25T00:03:44.556Z,28.67
2023-02-25T00:06:14.650Z,20.25
2023-02-25T00:08:45.413Z,19.35
2023-02-25T00:11:14.877Z,14.07
2023-02-25T00:13:44.472Z,20.17
2023-02-25T00:16:13.993Z,13.82
2023-02-25T00:18:44.466Z,23.83
2023-02-25T00:21:16.053Z,23.75
2023-02-25T00:23:45.596Z,16.13
2023-02-25T00:26:13.926Z,17.83
2023-02-25T00:28:41.962Z,19.92
2023-02-25T00:31:11.900Z,14.70
2023-02-25T00:33:42.041Z,19.48
2023-02-25T00:36:13.035Z,24.13
2023-02-25T00:38:42.163Z,17.08
2023-02-25T00:41:12.612Z,20.95
2023-02-25T00:43:42.292Z,15.60
2023-02-25T00:46:10.650Z,25.75
2023-02-25T00:48:38.956Z,13.48
2023-02-25T00:51:09.018Z,17.70
2023-02-25T00:53:37.846Z,15.82
2023-02-25T00:56:09.448Z,16.13
2023-02-25T00:58:37.573Z,17.98
2023-02-25T01:01:07.018Z,25.30
2023-02-25T01:03:35.022Z,25.08
2023-02-25T01:06:03.000Z,25.30
2023-02-25T01:08:31.006Z,17.65
2023-02-25T01:10:58.829Z,21.02
2023-02-25T01:13:28.025Z,21.63
2023-02-25T01:15:55.847Z,18.80
2023-02-25T01:18:24.266Z,17.38
2023-02-25T01:20:52.066Z,20.60
2023-02-25T01:23:19.849Z,20.33
2023-02-25T01:25:47.561Z,19.80
2023-02-25T01:28:15.366Z,15.40
2023-02-25T01:30:45.657Z,25.13
2023-02-25T01:33:13.459Z,25.60
2023-02-25T01:35:41.222Z,24.60
2023-02-25T01:38:09.001Z,16.63
2023-02-25T01:40:37.846Z,26.20
2023-02-25T01:43:07.748Z,21.90
2023-02-25T01:45:36.713Z,25.23
2023-02-25T01:48:10.858Z,15.50
2023-02-25T01:50:46.155Z,13.10
2023-02-25T01:53:14.272Z,18.58
2023-02-25T01:55:43.566Z,19.35
2023-02-25T01:58:13.681Z,18.40
2023-02-25T02:00:41.955Z,22.88
2023-02-25T02:03:16.070Z,25.60
2023-02-25T02:06:02.398Z,31.08
2023-02-25T02:08:30.785Z,37.40
2023-02-25T02:10:58.962Z,23.63
2023-02-25T02:13:27.224Z,30.48
2023-02-25T02:16:14.464Z,22.60
2023-02-25T02:18:50.251Z,15.77
2023-02-25T02:21:37.092Z,25.00
2023-02-25T02:24:55.335Z,25.55
2023-02-25T02:27:27.349Z,21.02
2023-02-25T02:30:17.331Z,25.70
2023-02-25T02:32:53.636Z,20.25
2023-02-25T02:35:26.340Z,25.33
2023-02-25T02:38:04.344Z,19.40
2023-02-25T02:40:44.623Z,21.30
2023-02-25T02:43:25.622Z,23.30
2023-02-25T02:46:00.436Z,21.20
2023-02-25T02:48:37.535Z,19.85
2023-02-25T02:51:12.952Z,14.02
2023-02-25T02:53:45.373Z,23.23
2023-02-25T02:56:15.860Z,22.65
2023-02-25T02:58:48.027Z,30.33
2023-02-25T03:01:22.149Z,27.42
2023-02-25T03:03:54.347Z,24.50
2023-02-25T03:06:24.833Z,21.08
2023-02-25T03:08:57.712Z,24.15
2023-02-25T03:11:26.949Z,16.40
2023-02-25T03:13:54.745Z,25.65
2023-02-25T03:16:28.976Z,14.65
2023-02-25T03:19:04.437Z,19.23
2023-02-25T03:21:37.521Z,14.77
2023-02-25T03:24:09.894Z,11.88
2023-02-25T03:26:42.792Z,16.17
2023-02-25T03:29:17.984Z,10.73
2023-02-25T03:31:50.217Z,12.98
2023-02-25T03:34:23.956Z,12.07
2023-02-25T03:36:58.023Z,15.77
2023-02-25T03:39:29.137Z,20.48
2023-02-25T03:42:03.692Z,13.88
2023-02-25T03:44:34.310Z,11.90
2023-02-25T03:47:05.740Z,13.55
2023-02-25T03:49:41.573Z,8.57
2023-02-25T03:52:14.841Z,14.50
2023-02-25T03:54:42.649Z,18.20
2023-02-25T03:57:10.719Z,9.73
2023-02-25T03:59:38.489Z,24.10
2023-02-25T04:02:06.838Z,11.95
2023-02-25T04:04:39.023Z,13.75
2023-02-25T04:07:06.799Z,18.70
2023-02-25T04:09:34.607Z,14.10
2023-02-25T04:12:02.354Z,17.77
2023-02-25T04:14:30.108Z,15.80
2023-02-25T04:17:00.827Z,22.70
2023-02-25T04:19:28.674Z,21.52
2023-02-25T04:21:57.813Z,18.63
2023-02-25T04:24:25.589Z,19.02
2023-02-25T04:26:58.344Z,18.48
2023-02-25T04:29:26.641Z,20.70
2023-02-25T04:31:54.772Z,17.33
2023-02-25T04:34:23.061Z,24.02
2023-02-25T04:36:50.828Z,21.85
2023-02-25T04:39:20.165Z,21.83
2023-02-25T04:41:48.000Z,23.98
2023-02-25T04:44:15.758Z,23.10
2023-02-25T04:46:44.169Z,32.15
2023-02-25T04:49:12.262Z,25.13
2023-02-25T04:51:42.509Z,13.23
2023-02-25T04:54:10.265Z,12.10
2023-02-25T04:56:40.284Z,17.50
2023-02-25T04:59:11.369Z,15.10
2023-02-25T05:01:39.318Z,17.27
2023-02-25T05:04:07.683Z,12.02
2023-02-25T05:06:35.788Z,13.25
2023-02-25T05:09:03.948Z,18.58
2023-02-25T05:11:31.738Z,11.13
2023-02-25T05:14:00.916Z,12.75
2023-02-25T05:16:28.772Z,16.73
2023-02-25T05:18:57.026Z,38.58
2023-02-25T05:21:29.369Z,19.52
2023-02-25T05:23:57.210Z,10.23
2023-02-25T05:26:26.310Z,18.25
2023-02-25T05:28:56.125Z,10.05
2023-02-25T05:31:26.178Z,10.82
2023-02-25T05:33:54.511Z,13.63
2023-02-25T05:36:25.291Z,15.73
2023-02-25T05:38:55.157Z,17.20
2023-02-25T05:41:23.285Z,15.70
2023-02-25T05:43:51.066Z,18.33
2023-02-25T05:46:18.823Z,14.57
2023-02-25T05:48:48.901Z,24.80
2023-02-25T05:51:18.938Z,19.65
2023-02-25T05:53:48.047Z,25.83
2023-02-25T05:56:18.711Z,24.73
2023-02-25T05:58:48.433Z,20.17
2023-02-25T06:01:18.085Z,15.38
2023-02-25T06:03:48.904Z,31.27
2023-02-25T06:06:18.162Z,27.10
2023-02-25T06:08:46.011Z,28.05
2023-02-25T06:11:18.303Z,26.45
2023-02-25T06:13:46.124Z,23.05
2023-02-25T06:16:14.661Z,45.45
2023-02-25T06:18:42.592Z,21.35
2023-02-25T06:21:14.182Z,33.30
2023-02-25T06:23:43.626Z,22.30
2023-02-25T06:26:13.155Z,20.00
2023-02-25T06:28:41.214Z,18.67
2023-02-25T06:31:10.356Z,25.55
2023-02-25T06:33:39.275Z,20.85
2023-02-25T06:36:08.002Z,21.60
2023-02-25T06:38:37.581Z,21.20
2023-02-25T06:41:07.537Z,21.67
2023-02-25T06:43:35.752Z,20.63
2023-02-25T06:46:07.838Z,21.38
2023-02-25T06:48:35.925Z,20.15
2023-02-25T06:51:09.049Z,27.45
2023-02-25T06:53:38.766Z,21.60
2023-02-25T06:56:08.263Z,19.23
2023-02-25T06:58:36.504Z,17.50
2023-02-25T07:01:07.375Z,20.58
2023-02-25T07:03:35.257Z,45.08
2023-02-25T07:06:03.055Z,39.42
2023-02-25T07:08:31.048Z,20.90
2023-02-25T07:11:13.411Z,19.65
2023-02-25T07:13:43.879Z,20.70
2023-02-25T07:16:11.811Z,18.02
2023-02-25T07:18:40.578Z,17.52
2023-02-25T07:21:08.624Z,18.05
2023-02-25T07:23:36.486Z,19.17
2023-02-25T07:26:07.177Z,24.80
2023-02-25T07:28:35.648Z,17.85
2023-02-25T07:31:04.492Z,26.70
2023-02-25T07:33:32.651Z,19.08
2023-02-25T07:36:00.377Z,17.20
2023-02-25T07:38:28.235Z,22.75
2023-02-25T07:40:56.625Z,20.25
2023-02-25T07:43:25.903Z,17.02
2023-02-25T07:45:53.741Z,18.25
2023-02-25T07:48:21.494Z,17.50
2023-02-25T07:50:49.344Z,12.93
2023-02-25T07:53:17.285Z,18.88
2023-02-25T07:55:45.662Z,18.50
2023-02-25T07:58:14.082Z,13.65
2023-02-25T08:00:45.789Z,27.00
2023-02-25T08:03:13.709Z,16.25
2023-02-25T08:05:41.458Z,24.45
2023-02-25T08:08:09.238Z,15.63
2023-02-25T08:10:38.299Z,17.17
2023-02-25T08:13:05.997Z,25.30
2023-02-25T08:15:33.775Z,17.95
2023-02-25T08:18:03.503Z,20.98
2023-02-25T08:20:31.263Z,19.63
2023-02-25T08:22:59.157Z,22.30
2023-02-25T08:25:27.145Z,31.20
2023-02-25T08:27:54.968Z,21.80
2023-02-25T08:30:22.895Z,18.88
2023-02-25T08:32:50.769Z,25.55
2023-02-25T08:35:20.153Z,20.27
2023-02-25T08:37:47.946Z,21.15
2023-02-25T08:40:16.889Z,20.30
2023-02-25T08:42:45.794Z,23.77
2023-02-25T08:45:13.886Z,21.98
2023-02-25T08:47:41.642Z,28.20
2023-02-25T08:50:10.933Z,24.02
2023-02-25T08:52:42.349Z,21.48
2023-02-25T08:55:14.882Z,24.73
2023-02-25T08:57:43.186Z,23.33
2023-02-25T09:00:15.167Z,24.40
2023-02-25T09:02:44.889Z,16.60
2023-02-25T09:05:12.697Z,22.35
2023-02-25T09:07:41.817Z,19.70
2023-02-25T09:10:12.760Z,20.25
2023-02-25T09:12:42.253Z,23.63
2023-02-25T09:15:11.248Z,23.80
2023-02-25T09:17:39.101Z,27.17
2023-02-25T09:20:11.187Z,20.67
2023-02-25T09:22:40.159Z,20.65
2023-02-25T09:25:09.599Z,19.05
2023-02-25T09:27:37.492Z,17.52
2023-02-25T09:30:06.268Z,11.40
2023-02-25T09:32:34.219Z,16.10
2023-02-25T09:35:06.987Z,18.55
2023-02-25T09:37:34.890Z,22.90
2023-02-25T09:40:03.883Z,17.25
2023-02-25T09:42:45.533Z,17.30
2023-02-25T09:45:19.968Z,12.00
2023-02-25T09:47:55.095Z,12.95
2023-02-25T09:50:26.668Z,15.68
2023-02-25T09:53:02.800Z,12.63
2023-02-25T09:55:33.794Z,11.68
2023-02-25T09:58:09.900Z,11.85
2023-02-25T10:00:43.969Z,10.15
2023-02-25T10:03:21.849Z,13.73
2023-02-25T10:05:58.103Z,11.07
2023-02-25T10:08:32.499Z,11.93
2023-02-25T10:11:07.300Z,14.20
2023-02-25T10:13:47.225Z,12.93
2023-02-25T10:16:30.166Z,14.80
2023-02-25T10:19:09.156Z,12.23
2023-02-25T10:21:52.022Z,12.18
2023-02-25T10:24:30.011Z,9.93
2023-02-25T10:27:04.059Z,12.27
2023-02-25T10:29:39.896Z,4.93
2023-02-25T10:32:18.462Z,8.32
2023-02-25T10:34:46.778Z,2.58
2023-02-25T10:37:22.478Z,4.68
2023-02-25T10:39:55.616Z,3.28
2023-02-25T10:42:23.542Z,4.10
2023-02-25T10:44:53.816Z,14.68
2023-02-25T10:47:30.226Z,3.83
2023-02-25T10:50:27.544Z,6.85
2023-02-25T10:53:04.197Z,10.70
2023-02-25T10:55:51.430Z,8.10
2023-02-25T10:58:31.999Z,8.52
2023-02-25T11:01:04.742Z,10.20
2023-02-25T11:03:36.430Z,9.60
2023-02-25T11:06:22.733Z,8.60
2023-02-25T11:08:52.245Z,7.22
2023-02-25T11:11:23.177Z,15.98
2023-02-25T11:14:03.205Z,9.35
2023-02-25T11:16:36.506Z,11.88
2023-02-25T11:19:15.022Z,12.23
2023-02-25T11:21:43.378Z,10.63
2023-02-25T11:24:16.061Z,8.52
2023-02-25T11:26:46.318Z,8.50
2023-02-25T11:29:18.698Z,9.73
2023-02-25T11:31:52.118Z,8.50
2023-02-25T11:34:23.780Z,6.45
2023-02-25T11:36:59.936Z,7.38
2023-02-25T11:39:30.894Z,12.43
2023-02-25T11:42:02.839Z,11.88
2023-02-25T11:44:40.950Z,11.70
2023-02-25T11:47:23.057Z,10.20
2023-02-25T11:50:05.344Z,6.97
2023-02-25T11:52:40.331Z,7.70
2023-02-25T11:55:19.385Z,6.60
2023-02-25T11:57:58.615Z,11.82
2023-02-25T12:00:33.408Z,6.55
2023-02-25T12:03:28.444Z,9.15
2023-02-25T12:06:25.422Z,8.90
2023-02-25T12:09:29.260Z,9.75
2023-02-25T12:12:26.569Z,8.27
2023-02-25T12:15:36.163Z,12.10
2023-02-25T12:18:50.259Z,8.75
2023-02-25T12:21:57.433Z,8.50
2023-02-25T12:24:46.280Z,10.57
2023-02-25T12:27:47.704Z,6.72
2023-02-25T12:30:50.617Z,7.85
2023-02-25T12:33:43.860Z,7.85
2023-02-25T12:39:47.985Z,9.07
2023-02-25T12:42:40.010Z,13.65
2023-02-25T12:45:24.573Z,7.70
2023-02-25T12:48:10.014Z,10.23
2023-02-25T12:50:57.329Z,5.38
2023-02-25T12:53:45.353Z,7.85
2023-02-25T12:56:53.404Z,8.85
2023-02-25T12:59:39.661Z,11.13
2023-02-25T13:02:28.829Z,8.02
2023-02-25T13:05:22.530Z,7.68
2023-02-25T13:08:10.544Z,8.25
2023-02-25T13:11:00.089Z,7.03
2023-02-25T13:14:22.262Z,8.50
2023-02-25T13:17:22.297Z,11.23
2023-02-25T13:20:18.708Z,11.80
2023-02-25T13:23:04.255Z,11.93
2023-02-25T13:25:48.082Z,10.02
2023-02-25T13:28:27.496Z,7.78
2023-02-25T13:31:00.361Z,6.88
2023-02-25T13:33:46.380Z,14.27
2023-02-25T13:36:34.304Z,12.15
2023-02-25T13:39:23.711Z,11.80
2023-02-25T13:42:10.143Z,10.10
2023-02-25T13:44:51.606Z,4.93
2023-02-25T13:47:38.976Z,8.73
2023-02-25T13:50:32.906Z,9.43
2023-02-25T13:53:13.213Z,9.88
2023-02-25T13:56:00.621Z,10.23
2023-02-25T13:58:45.976Z,5.05
2023-02-25T14:01:45.280Z,8.32
2023-02-25T14:04:46.199Z,9.23
2023-02-25T14:07:46.880Z,9.85
2023-02-25T14:10:30.474Z,10.75
2023-02-25T14:13:26.807Z,18.88
2023-02-25T14:16:07.372Z,9.27
2023-02-25T14:18:54.062Z,6.15
2023-02-25T14:21:51.781Z,8.77
2023-02-25T14:24:28.967Z,14.38
2023-02-25T14:27:12.500Z,10.25
2023-02-25T14:29:54.872Z,10.73
2023-02-25T14:32:39.567Z,11.02
2023-02-25T14:35:22.613Z,8.73
2023-02-25T14:38:00.786Z,13.00
2023-02-25T14:40:41.170Z,8.55
2023-02-25T14:43:32.269Z,10.65
2023-02-25T14:46:10.785Z,13.30
2023-02-25T14:48:45.591Z,8.13
2023-02-25T14:51:50.118Z,14.43
2023-02-25T14:54:49.187Z,10.60
2023-02-25T14:57:41.482Z,12.00
2023-02-25T15:00:30.237Z,10.32
2023-02-25T15:03:29.723Z,9.60
2023-02-25T15:06:15.271Z,10.40
2023-02-25T15:09:19.207Z,12.55
2023-02-25T15:12:07.022Z,10.40
2023-02-25T15:14:49.283Z,13.32
2023-02-25T15:17:55.863Z,12.65
2023-02-25T15:20:39.046Z,7.68
2023-02-25T15:23:37.152Z,11.27
2023-02-25T15:26:22.692Z,9.77
2023-02-25T15:28:51.322Z,13.63
2023-02-25T15:31:30.967Z,6.43
2023-02-25T15:34:32.780Z,13.45
2023-02-25T15:37:30.182Z,7.50
2023-02-25T15:40:00.186Z,11.52
2023-02-25T15:42:56.689Z,5.50
2023-02-25T15:45:42.215Z,9.00
2023-02-25T15:48:34.028Z,13.80
2023-02-25T15:51:04.103Z,13.07
2023-02-25T15:53:46.154Z,12.88
2023-02-25T15:56:49.370Z,6.35
2023-02-25T15:59:42.228Z,11.60
2023-02-25T16:02:33.375Z,7.82
2023-02-25T16:05:02.834Z,10.02
2023-02-25T16:07:35.208Z,5.72
2023-02-25T16:10:10.461Z,10.52
2023-02-25T16:12:39.294Z,11.75
2023-02-25T16:15:08.505Z,9.88
2023-02-25T16:17:37.248Z,11.43
2023-02-25T16:20:18.081Z,24.33
2023-02-25T16:22:48.725Z,10.32
2023-02-25T16:25:25.195Z,14.00
2023-02-25T16:28:02.380Z,16.40
2023-02-25T16:30:41.466Z,13.63
2023-02-25T16:33:20.535Z,6.78
2023-02-25T16:36:02.652Z,6.10
2023-02-25T16:38:42.538Z,12.73
2023-02-25T16:41:14.251Z,7.00
2023-02-25T16:43:43.940Z,13.27
2023-02-25T16:46:14.979Z,11.88
2023-02-25T16:48:50.265Z,16.05
2023-02-25T16:51:25.452Z,17.17
2023-02-25T16:53:57.934Z,10.88
2023-02-25T16:56:29.789Z,19.92
2023-02-25T16:59:05.940Z,11.45
2023-02-25T17:01:36.451Z,12.20
2023-02-25T17:04:15.417Z,9.65
2023-02-25T17:06:43.887Z,11.05
2023-02-25T17:09:24.614Z,10.40
2023-02-25T17:11:56.685Z,9.90
2023-02-25T17:14:26.256Z,9.45
2023-02-25T17:16:54.432Z,8.10
2023-02-25T17:19:24.654Z,8.63
2023-02-25T17:21:55.050Z,12.57
2023-02-25T17:24:28.436Z,10.27
2023-02-25T17:26:58.284Z,13.35
2023-02-25T17:29:34.952Z,11.35
2023-02-25T17:32:14.906Z,15.43
2023-02-25T17:34:43.385Z,17.33
2023-02-25T17:37:13.990Z,21.05
2023-02-25T17:39:44.231Z,7.28
2023-02-25T17:42:35.514Z,11.43
2023-02-25T17:45:07.214Z,12.48
2023-02-25T17:47:38.087Z,12.50
2023-02-25T17:50:23.013Z,10.27
2023-02-25T17:52:51.607Z,7.35
2023-02-25T17:55:25.484Z,14.88
2023-02-25T18:00:27.477Z,15.32
2023-02-25T18:03:13.165Z,14.02
2023-02-25T18:05:51.295Z,16.02
2023-02-25T18:08:21.806Z,15.27
2023-02-25T18:10:55.124Z,10.02
2023-02-25T18:13:29.177Z,12.45
2023-02-25T18:16:38.486Z,12.60
2023-02-25T18:19:34.122Z,6.70
2023-02-25T18:22:01.955Z,8.05
2023-02-25T18:24:33.123Z,14.77
2023-02-25T18:27:03.729Z,14.65
2023-02-25T18:29:33.856Z,10.55
2023-02-25T18:32:01.873Z,12.13
2023-02-25T18:34:30.418Z,11.27
2023-02-25T18:36:58.223Z,7.43
2023-02-25T18:39:27.640Z,14.88
2023-02-25T18:41:57.972Z,10.45
2023-02-25T18:44:25.716Z,10.43
2023-02-25T18:46:54.868Z,19.73
2023-02-25T18:49:22.723Z,11.13
2023-02-25T18:51:52.426Z,9.50
2023-02-25T18:54:20.192Z,10.45
2023-02-25T18:56:48.165Z,20.23
2023-02-25T18:59:15.941Z,7.90
2023-02-25T19:01:45.277Z,16.25
2023-02-25T19:04:17.575Z,11.93
2023-02-25T19:06:46.720Z,23.77
2023-02-25T19:09:14.889Z,22.10
2023-02-25T19:11:45.507Z,32.20
2023-02-25T19:14:19.697Z,29.88
2023-02-25T19:16:47.462Z,34.65
2023-02-25T19:19:17.322Z,21.30
2023-02-25T19:21:45.121Z,22.40
2023-02-25T19:24:13.207Z,30.10
2023-02-25T19:26:41.710Z,47.03
2023-02-25T19:29:09.575Z,52.35
2023-02-25T19:31:37.628Z,26.63
2023-02-25T19:34:05.403Z,29.60
2023-02-25T19:36:36.628Z,61.22
2023-02-25T19:39:05.570Z,43.67
2023-02-25T19:41:34.104Z,22.90
2023-02-25T19:44:01.907Z,44.05
2023-02-25T19:46:29.675Z,19.80
2023-02-25T19:48:58.005Z,17.90
2023-02-25T19:51:25.766Z,14.50
2023-02-25T19:53:54.911Z,16.27
2023-02-25T19:56:23.617Z,12.27
2023-02-25T19:58:51.641Z,16.02
2023-02-25T20:01:19.454Z,12.88
2023-02-25T20:03:47.677Z,12.27
2023-02-25T20:06:15.716Z,14.07
2023-02-25T20:08:45.801Z,15.75
2023-02-25T20:11:14.961Z,19.10
2023-02-25T20:13:42.832Z,13.27
2023-02-25T20:16:10.615Z,15.50
2023-02-25T20:18:38.878Z,14.90
2023-02-25T20:21:07.314Z,14.73
2023-02-25T20:23:35.400Z,15.10
2023-02-25T20:26:05.060Z,16.92
2023-02-25T20:28:34.456Z,19.58
2023-02-25T20:31:07.525Z,14.43
2023-02-25T20:33:36.341Z,24.80
2023-02-25T20:36:18.168Z,16.58
2023-02-25T20:39:05.322Z,18.75
2023-02-25T20:41:33.347Z,29.92
2023-02-25T20:44:02.712Z,18.25
2023-02-25T20:46:30.704Z,16.55
2023-02-25T20:48:58.739Z,14.00
2023-02-25T20:51:26.921Z,23.42
2023-02-25T20:53:55.330Z,13.60
2023-02-25T20:56:25.742Z,17.40
2023-02-25T20:58:54.842Z,18.02
2023-02-25T21:01:24.216Z,20.30
2023-02-25T21:03:52.096Z,25.42
2023-02-25T21:06:22.795Z,19.88
2023-02-25T21:08:51.669Z,37.15
2023-02-25T21:11:19.523Z,24.83
2023-02-25T21:13:47.658Z,38.40
2023-02-25T21:16:16.980Z,47.83
2023-02-25T21:18:46.948Z,31.30
2023-02-25T21:21:16.875Z,15.25
2023-02-25T21:23:45.068Z,14.75
2023-02-25T21:26:13.708Z,12.43
2023-02-25T21:28:42.110Z,18.77
2023-02-25T21:31:13.154Z,18.17
2023-02-25T21:33:41.301Z,15.02
2023-02-25T21:36:12.023Z,17.33
2023-02-25T21:38:40.432Z,15.45
2023-02-25T21:41:09.863Z,10.43
2023-02-25T21:43:38.135Z,13.43
2023-02-25T21:46:07.732Z,22.02
2023-02-25T21:48:35.519Z,13.38
2023-02-25T21:51:03.572Z,16.13
2023-02-25T21:53:32.853Z,16.92
2023-02-25T21:56:10.170Z,12.32
2023-02-25T21:58:38.125Z,24.63
2023-02-25T22:01:14.027Z,19.25
2023-02-25T22:03:42.301Z,13.43
2023-02-25T22:06:10.779Z,16.13
2023-02-25T22:08:40.896Z,15.98
2023-02-25T22:11:12.604Z,21.15
2023-02-25T22:13:40.494Z,31.90
2023-02-25T22:16:08.571Z,13.88
2023-02-25T22:18:36.906Z,14.30
2023-02-25T22:21:06.493Z,17.42
2023-02-25T22:23:34.298Z,22.88
2023-02-25T22:26:05.142Z,11.73
2023-02-25T22:28:33.319Z,11.15
2023-02-25T22:31:01.225Z,14.65
2023-02-25T22:33:29.500Z,16.08
2023-02-25T22:35:59.033Z,15.07
2023-02-25T22:38:29.178Z,16.63
2023-02-25T22:40:56.966Z,12.88
2023-02-25T22:43:26.128Z,13.52
2023-02-25T22:45:53.980Z,15.38
2023-02-25T22:48:21.719Z,14.73
2023-02-25T22:50:50.606Z,15.13
2023-02-25T22:53:18.399Z,12.65
2023-02-25T22:55:46.232Z,11.63
2023-02-25T22:58:13.987Z,9.55
2023-02-25T23:00:44.414Z,11.32
2023-02-25T23:03:12.348Z,14.68
2023-02-25T23:05:42.198Z,12.50
2023-02-25T23:08:09.980Z,12.68
2023-02-25T23:10:37.755Z,15.27
2023-02-25T23:13:08.064Z,8.43
2023-02-25T23:15:36.994Z,11.35
2023-02-25T23:18:08.640Z,10.38
2023-02-25T23:20:38.862Z,10.32
2023-02-25T23:23:09.408Z,13.43
2023-02-25T23:25:39.145Z,14.63
2023-02-25T23:28:08.806Z,8.02
2023-02-25T23:30:38.712Z,13.35
2023-02-25T23:33:07.845Z,12.00
2023-02-25T23:35:36.971Z,16.10
2023-02-25T23:38:04.681Z,10.60
2023-02-25T23:40:33.082Z,12.25
2023-02-25T23:43:00.870Z,9.77
2023-02-25T23:45:28.789Z,9.95
2023-02-25T23:47:56.962Z,14.60
2023-02-25T23:50:26.935Z,12.63
2023-02-25T23:52:55.348Z,5.47
2023-02-25T23:55:23.104Z,7.20
2023-02-25T23:57:50.939Z,11.75
